Terminal Aerodrome Forecast
Issued by NWS

Home | Current Version | Previous Version | Text Only | Print | Product List | Glossary On
Versions: 1 2 3 4 5 6 7 8 9 10 11 12 13
000
FTUS45 KTFX 210500
TAFBZN
TAF
KBZN 210532Z 2106/2206 VRB06KT P6SM OVC060
     FM211000 20007KT P6SM -SHSN SCT025 OVC040
      TEMPO 2110/2114 2SM -SN OVC025
     FM211600 25008KT P6SM VCSH SCT015 BKN040
     FM212000 25012G20KT P6SM SCT040 OVC070=

USA.gov is the U.S. government's official web portal to all federal, state and local government web resources and services.